Terminal Aerodrome Forecast
Issued by NWS Charleston, WV

Current Version | Previous Version | Graphics & Text | Print | Product List | Glossary On
Versions: 1 2 3 4 5 6 7 8 9 10 11 12 13 14 15 16 17 18 19 20 21 22 23
000
FTUS41 KRLX 032336
TAFPKB
TAF
KPKB 032336Z 0400/0424 29004KT P6SM SCT020 BKN040
     FM040500 00000KT P6SM SCT015 BKN025
     FM040800 00000KT 5SM BR SCT015 BKN025
     FM041300 00000KT 6SM BR SCT015 BKN025
     FM041500 VRB03KT P6SM BKN035
     FM042000 21005KT 6SM SHRA BR VCTS BKN040CB
      AMD NOT SKED=

USA.gov is the U.S. government's official web portal to all federal, state and local government web resources and services.